Time;durP1;ratioP1;P1;durP2;ratioP2;P2;SDS_P1;SDS_P2;PMS_P1;PMS_P2;Temp;Humidity;BMP_temperature;BMP_pressure;BME280_temperature;BME280_humidity;BME280_pressure;Samples;Min_cycle;Max_cycle;Signal;HPM_P1;HPM_P2
2022/01/22 00:01:20;;;;;;;5.30;2.93;;;;;;;18.64;52.66;98150.16;10414584;28;20030;-22
2022/01/22 00:06:20;;;;;;;4.20;2.00;;;;;;;18.62;52.69;98149.28;10446633;28;20283;-22
2022/01/22 00:11:21;;;;;;;5.17;2.80;;;;;;;18.67;52.63;98147.72;10437390;28;20296;-21
2022/01/22 00:16:21;;;;;;;5.17;2.20;;;;;;;18.64;52.71;98143.44;10414453;28;20595;-22
2022/01/22 00:21:22;;;;;;;4.97;2.50;;;;;;;18.61;52.82;98142.50;10435792;28;20087;-21
2022/01/22 00:26:22;;;;;;;3.87;2.53;;;;;;;18.64;52.68;98137.47;10436761;28;20037;-21
2022/01/22 00:31:23;;;;;;;6.57;3.05;;;;;;;18.63;52.80;98138.31;10413214;28;20299;-21
2022/01/22 00:36:23;;;;;;;4.57;2.97;;;;;;;18.61;52.68;98132.34;10427962;28;20103;-21
2022/01/22 00:41:24;;;;;;;6.63;2.93;;;;;;;18.64;53.00;98134.94;10436880;28;20026;-21
2022/01/22 00:46:24;;;;;;;5.00;2.85;;;;;;;18.64;52.54;98137.47;10411064;28;20262;-21
2022/01/22 00:51:25;;;;;;;6.03;3.07;;;;;;;18.63;53.17;98130.69;10445087;28;20037;-21
2022/01/22 00:56:25;;;;;;;6.10;2.60;;;;;;;18.62;52.85;98124.78;10434007;28;20666;-21
2022/01/22 01:01:27;;;;;;;4.23;1.87;;;;;;;18.64;52.81;98140.03;10410886;28;20276;-21
2022/01/22 01:06:27;;;;;;;3.30;2.10;;;;;;;18.49;52.93;98119.41;10429413;28;20299;-21
2022/01/22 01:11:30;;;;;;;4.25;2.78;;;;;;;18.58;52.93;98139.91;10432518;28;20038;-21
2022/01/22 01:37:17;;;;;;;12.45;2.67;;;;;;;18.61;52.87;98133.22;10450581;28;20223;-21
2022/01/22 01:42:34;;;;;;;5.47;2.38;;;;;;;18.60;52.90;98148.41;10425060;28;20030;-21
2022/01/22 01:47:37;;;;;;;3.55;2.30;;;;;;;18.60;53.06;98146.69;10410149;28;20411;-21
2022/01/22 01:52:45;;;;;;;5.85;2.20;;;;;;;18.64;52.87;98145.97;10439468;28;20048;-21
2022/01/22 01:57:46;;;;;;;2.65;1.50;;;;;;;18.65;52.86;98154.41;10420529;28;20067;-22
2022/01/22 02:02:52;;;;;;;3.70;2.22;;;;;;;18.58;52.98;98150.06;10413674;28;20059;-22
2022/01/22 02:07:55;;;;;;;6.03;2.83;;;;;;;18.61;52.98;98134.88;10449643;28;20039;-21
2022/01/22 02:23:44;;;;;;;8.65;2.65;;;;;;;18.58;53.08;98130.59;10407609;28;20033;-21
2022/01/22 02:28:50;;;;;;;4.97;2.33;;;;;;;18.62;52.89;98123.91;10442713;28;20024;-21
2022/01/22 02:39:03;;;;;;;5.30;2.60;;;;;;;18.59;53.10;98123.84;10422478;28;20033;-21
2022/01/22 02:44:03;;;;;;;4.57;2.45;;;;;;;18.61;52.93;98133.22;10409010;28;20029;-22
2022/01/22 02:49:04;;;;;;;5.22;2.25;;;;;;;18.58;53.16;98135.66;10410162;28;20112;-22
2022/01/22 02:54:04;;;;;;;5.82;2.67;;;;;;;18.58;53.17;98133.13;10411996;28;20606;-22
2022/01/22 02:59:05;;;;;;;4.45;2.33;;;;;;;18.57;53.21;98133.13;10448093;28;20044;-22
2022/01/22 03:04:06;;;;;;;6.32;2.20;;;;;;;18.58;53.08;98129.75;10450073;28;20404;-21
2022/01/22 03:09:09;;;;;;;5.85;2.28;;;;;;;18.58;53.11;98132.28;10451184;28;20037;-22
2022/01/22 03:19:54;;;;;;;4.18;2.03;;;;;;;18.57;52.87;98138.19;10408419;28;20043;-21
2022/01/22 03:30:09;;;;;;;7.07;2.20;;;;;;;18.60;53.17;98133.19;10451661;28;20462;-22
2022/01/22 03:35:26;;;;;;;7.18;2.95;;;;;;;18.59;52.88;98128.94;10434415;28;20030;-22
2022/01/22 03:40:29;;;;;;;5.18;1.50;;;;;;;18.54;53.23;98140.66;10416806;28;20190;-22
2022/01/22 03:45:29;;;;;;;5.15;1.80;;;;;;;18.48;53.26;98120.22;10414643;28;20049;-22
2022/01/22 03:50:31;;;;;;;7.43;1.83;;;;;;;18.59;53.01;98134.00;10413805;28;20030;-22
2022/01/22 03:55:53;;;;;;;5.33;2.30;;;;;;;18.59;53.01;98128.94;10423142;28;20029;-22
2022/01/22 04:01:45;;;;;;;4.30;1.83;;;;;;;18.56;52.98;98132.25;10455829;28;20049;-22
2022/01/22 04:11:52;;;;;;;4.03;2.15;;;;;;;18.61;52.92;98122.22;10432420;28;20112;-22
2022/01/22 04:27:23;;;;;;;5.07;1.48;;;;;;;18.57;53.03;98110.28;10436272;28;20036;-22
2022/01/22 04:32:25;;;;;;;4.82;1.90;;;;;;;18.53;53.11;98108.50;10453694;28;20047;-22
2022/01/22 04:37:26;;;;;;;4.78;1.73;;;;;;;18.56;53.12;98111.09;10418824;28;20049;-22
2022/01/22 04:42:29;;;;;;;4.93;2.00;;;;;;;18.53;53.08;98109.38;10437134;28;20401;-22
2022/01/22 04:47:43;;;;;;;3.90;2.50;;;;;;;18.50;53.09;98103.38;10452728;28;20029;-22
2022/01/22 04:58:05;;;;;;;2.53;1.30;;;;;;;18.53;53.06;98106.84;10450700;28;20380;-22
2022/01/22 05:03:07;;;;;;;8.25;2.15;;;;;;;18.58;53.09;98114.53;10452409;28;20414;-22
2022/01/22 05:08:23;;;;;;;4.50;1.52;;;;;;;18.58;52.98;98101.84;10451649;28;20029;-22
2022/01/22 05:13:35;;;;;;;2.58;1.98;;;;;;;18.57;52.72;98100.16;10416083;28;20037;-21
2022/01/22 05:18:49;;;;;;;3.10;1.80;;;;;;;18.64;52.81;98107.91;10410443;28;20120;-22
2022/01/22 05:23:51;;;;;;;2.38;1.35;;;;;;;18.56;53.05;98104.34;10410428;28;20026;-22
2022/01/22 05:29:17;;;;;;;3.38;1.88;;;;;;;18.59;52.81;98117.09;10445722;28;20076;-22
2022/01/22 05:40:08;;;;;;;2.30;1.70;;;;;;;18.65;52.55;98132.44;10442667;28;20075;-21
2022/01/22 05:45:09;;;;;;;6.07;2.17;;;;;;;18.67;52.63;98146.03;10410661;28;20094;-22
2022/01/22 05:50:23;;;;;;;3.97;2.13;;;;;;;18.56;52.62;98131.38;10420440;28;20376;-21
2022/01/22 05:55:41;;;;;;;3.30;1.40;;;;;;;18.66;52.59;98146.00;10447895;28;20033;-22
2022/01/22 06:00:42;;;;;;;4.95;1.70;;;;;;;18.65;52.82;98140.06;10446142;28;20163;-22
2022/01/22 06:05:55;;;;;;;2.67;1.48;;;;;;;18.65;52.64;98149.34;10407974;28;20045;-22
2022/01/22 06:10:58;;;;;;;9.00;1.73;;;;;;;18.63;53.13;98149.31;10407519;28;20033;-21
2022/01/22 06:16:00;;;;;;;4.57;2.08;;;;;;;18.63;52.74;98159.47;10408248;28;20029;-21
2022/01/22 06:21:36;;;;;;;4.30;1.42;;;;;;;18.64;52.67;98166.25;10439325;28;20503;-22
2022/01/22 06:26:36;;;;;;;2.60;1.73;;;;;;;18.70;52.99;98163.00;10447057;28;20029;-22
2022/01/22 06:31:37;;;;;;;2.65;1.48;;;;;;;18.67;52.38;98168.84;10448940;28;20033;-21
2022/01/22 06:36:37;;;;;;;4.20;1.58;;;;;;;18.74;52.21;98174.94;10416745;28;20637;-21
2022/01/22 06:41:45;;;;;;;2.42;1.20;;;;;;;18.77;52.17;98187.69;10424899;28;20385;-21
2022/01/22 06:47:05;;;;;;;1.45;1.27;;;;;;;18.77;51.67;98180.06;10449733;28;20041;-22
2022/01/22 06:52:24;;;;;;;3.80;1.40;;;;;;;18.78;51.55;98185.19;10418863;28;20041;-21
2022/01/22 06:57:29;;;;;;;1.52;1.08;;;;;;;18.70;51.55;98173.13;10431239;28;20087;-22
2022/01/22 07:02:30;;;;;;;3.05;1.33;;;;;;;18.74;51.67;98177.47;10447971;28;20021;-22
2022/01/22 07:07:32;;;;;;;3.00;1.77;;;;;;;18.73;51.68;98188.41;10413365;28;20041;-22
2022/01/22 07:12:32;;;;;;;3.75;1.95;;;;;;;18.76;51.61;98194.44;10442395;28;20025;-21
2022/01/22 07:17:36;;;;;;;2.38;1.67;;;;;;;18.78;51.42;98191.94;10456187;28;20032;-21
2022/01/22 07:22:54;;;;;;;4.53;1.38;;;;;;;18.78;51.32;98208.03;10415614;28;20034;-22
2022/01/22 07:28:16;;;;;;;2.55;1.23;;;;;;;18.75;51.52;98194.41;10415548;28;20507;-22
2022/01/22 07:33:17;;;;;;;2.88;1.85;;;;;;;18.78;51.57;98202.06;10409155;28;20037;-21
2022/01/22 07:38:19;;;;;;;3.10;1.40;;;;;;;18.74;51.57;98201.16;10415574;28;20029;-22
2022/01/22 07:43:20;;;;;;;2.40;1.23;;;;;;;18.78;51.53;98207.16;10428082;28;20030;-22
2022/01/22 07:48:39;;;;;;;3.88;1.60;;;;;;;18.74;52.40;98221.44;10396739;28;20049;-21
2022/01/22 07:53:45;;;;;;;2.90;1.50;;;;;;;18.74;52.11;98218.06;10419346;28;20037;-22
2022/01/22 07:58:52;;;;;;;2.63;1.50;;;;;;;18.71;52.97;98218.84;10438851;28;20034;-21
2022/01/22 08:03:54;;;;;;;6.80;1.60;;;;;;;18.59;52.56;98180.50;10443967;28;20048;-22
2022/01/22 08:09:13;;;;;;;12.02;1.50;;;;;;;18.79;52.14;98209.72;10421427;28;20479;-22
2022/01/22 08:14:36;;;;;;;5.30;2.20;;;;;;;18.79;52.12;98219.00;10396608;28;20116;-22
2022/01/22 08:19:37;;;;;;;3.15;1.60;;;;;;;18.76;51.83;98196.13;10403451;28;20494;-22
2022/01/22 08:24:53;;;;;;;4.65;1.60;;;;;;;18.74;51.83;98213.00;10402026;28;20119;-22
2022/01/22 08:29:57;;;;;;;9.10;2.42;;;;;;;18.81;50.97;98227.50;10432217;28;20122;-22
2022/01/22 08:40:17;;;;;;;8.77;2.20;;;;;;;18.71;52.08;98241.69;10430698;28;20032;-20
2022/01/22 08:45:18;;;;;;;14.63;3.10;;;;;;;18.69;51.80;98245.00;10437030;28;20029;-22
2022/01/22 08:50:18;;;;;;;13.32;2.92;;;;;;;18.72;51.43;98222.22;10434154;28;20033;-22
2022/01/22 08:55:19;;;;;;;6.45;3.38;;;;;;;15.50;44.96;98241.22;10422292;28;20030;-22
2022/01/22 09:00:20;;;;;;;4.20;3.05;;;;;;;14.70;42.82;98239.81;10406549;28;20030;-21
2022/01/22 09:05:38;;;;;;;9.27;4.82;;;;;;;14.32;41.85;98264.31;10429376;28;20030;-21
2022/01/22 09:10:57;;;;;;;6.20;3.50;;;;;;;15.92;43.32;98255.34;10444050;28;20040;-20
2022/01/22 09:16:17;;;;;;;10.05;4.20;;;;;;;17.28;46.19;98253.84;10422739;28;20040;-21
2022/01/22 09:21:17;;;;;;;5.57;2.90;;;;;;;17.88;45.02;98255.56;10385283;28;20579;-21
2022/01/22 09:26:19;;;;;;;7.53;3.53;;;;;;;17.90;43.05;98233.69;10412854;28;20324;-20
2022/01/22 09:31:21;;;;;;;8.82;2.65;;;;;;;18.11;46.31;98239.31;10408631;28;20496;-21
2022/01/22 09:36:22;;;;;;;9.80;3.53;;;;;;;18.34;44.07;98248.38;10410719;28;20034;-21
2022/01/22 09:41:46;;;;;;;6.90;2.92;;;;;;;18.41;44.02;98245.19;10416876;28;20030;-21
2022/01/22 09:47:01;;;;;;;10.32;3.28;;;;;;;18.44;44.62;98245.25;10390968;28;20053;-21
2022/01/22 09:52:14;;;;;;;5.50;2.88;;;;;;;18.39;45.08;98251.88;10409256;28;20025;-21
2022/01/22 09:57:55;;;;;;;8.57;2.67;;;;;;;18.34;48.28;98266.13;10378032;28;20038;-21
2022/01/22 10:03:22;;;;;;;10.63;2.70;;;;;;;18.34;48.08;98299.09;10426841;28;20037;-21
2022/01/22 10:08:36;;;;;;;6.28;2.33;;;;;;;18.37;48.79;98292.44;10427990;28;20091;-20
2022/01/22 10:13:59;;;;;;;7.80;2.20;;;;;;;18.47;48.27;98268.13;10430366;28;20049;-21
2022/01/22 10:19:12;;;;;;;4.65;2.38;;;;;;;18.61;48.57;98289.63;10431823;28;20041;-21
2022/01/22 10:24:38;;;;;;;7.45;2.50;;;;;;;18.60;48.91;98287.91;10440943;28;20033;-21
2022/01/22 10:29:47;;;;;;;12.07;3.97;;;;;;;18.30;43.91;98292.22;10413637;28;20503;-21
2022/01/22 10:34:47;;;;;;;5.97;2.67;;;;;;;18.54;49.19;98280.16;10433437;28;20556;-22
2022/01/22 10:40:17;;;;;;;7.45;2.28;;;;;;;18.59;49.47;98265.91;10391423;28;20037;-22
2022/01/22 10:45:29;;;;;;;3.58;2.05;;;;;;;18.53;49.66;98256.47;10400177;28;20587;-21
2022/01/22 10:50:29;;;;;;;7.57;2.60;;;;;;;18.50;49.79;98241.16;10424335;28;20044;-22
2022/01/22 10:55:30;;;;;;;8.23;2.40;;;;;;;18.59;49.41;98235.47;10425676;28;20041;-22
2022/01/22 11:00:30;;;;;;;10.40;3.63;;;;;;;18.58;49.37;98237.13;10389445;28;20645;-21
2022/01/22 11:05:37;;;;;;;6.30;2.55;;;;;;;18.62;49.47;98240.59;10431200;28;20522;-22
2022/01/22 11:10:38;;;;;;;6.38;2.28;;;;;;;18.63;49.25;98243.19;10436998;28;20037;-21
2022/01/22 11:15:39;;;;;;;5.40;2.37;;;;;;;18.63;49.43;98224.56;10419466;28;20030;-21
2022/01/22 11:20:40;;;;;;;7.15;2.20;;;;;;;18.65;49.50;98230.53;10439004;28;20029;-21
2022/01/22 11:25:41;;;;;;;7.72;2.58;;;;;;;18.68;49.24;98225.53;10423648;28;20033;-22
2022/01/22 11:30:45;;;;;;;8.55;2.33;;;;;;;18.49;49.45;98182.81;10428658;28;20033;-20
2022/01/22 11:35:51;;;;;;;4.35;1.77;;;;;;;18.65;49.53;98217.84;10430731;28;20040;-21
2022/01/22 11:41:06;;;;;;;7.32;2.35;;;;;;;18.64;49.70;98218.66;10446994;28;20464;-21
2022/01/22 11:46:25;;;;;;;5.43;2.38;;;;;;;18.66;49.41;98222.13;10447023;28;20060;-21
2022/01/22 11:51:25;;;;;;;9.85;2.60;;;;;;;18.64;49.34;98221.19;10423481;28;20538;-21
2022/01/22 11:56:42;;;;;;;3.37;2.37;;;;;;;18.70;49.07;98224.75;10420526;28;20064;-21
2022/01/22 12:01:56;;;;;;;8.73;2.13;;;;;;;18.76;48.93;98218.97;10414451;28;20299;-22
2022/01/22 12:07:02;;;;;;;14.07;3.42;;;;;;;18.69;49.35;98206.94;10437463;28;20507;-21
2022/01/22 12:17:46;;;;;;;5.72;2.20;;;;;;;18.63;49.87;98210.22;10414648;28;20488;-22
2022/01/22 12:22:48;;;;;;;6.15;2.75;;;;;;;18.67;50.41;98213.69;10414301;28;20505;-22
2022/01/22 12:27:48;;;;;;;8.32;2.35;;;;;;;18.57;50.54;98199.06;10440725;28;20059;-22
2022/01/22 12:32:51;;;;;;;8.85;2.45;;;;;;;18.59;50.51;98189.81;10449401;28;20567;-22
2022/01/22 12:38:26;;;;;;;6.13;2.08;;;;;;;18.59;50.66;98198.25;10413210;28;20456;-21
2022/01/22 12:43:32;;;;;;;4.80;2.45;;;;;;;18.71;51.98;98185.88;10445484;28;20032;-21
2022/01/22 12:48:38;;;;;;;9.70;3.00;;;;;;;18.71;52.03;98185.00;10450933;28;20527;-22
2022/01/22 12:53:47;;;;;;;15.25;3.60;;;;;;;18.71;52.45;98175.72;10412944;28;20413;-21
2022/01/22 12:58:48;;;;;;;11.68;3.90;;;;;;;18.72;52.57;98179.09;10411630;28;20095;-22
2022/01/22 13:03:51;;;;;;;14.67;4.97;;;;;;;18.73;52.23;98168.13;10419858;28;20055;-21
2022/01/22 13:08:58;;;;;;;15.98;5.15;;;;;;;18.74;52.14;98167.31;10434661;28;20284;-21
2022/01/22 13:14:12;;;;;;;8.45;3.28;;;;;;;18.74;52.32;98170.72;10440152;28;20025;-22
2022/01/22 13:19:13;;;;;;;13.20;3.17;;;;;;;18.74;52.06;98165.63;10402402;28;20063;-21
2022/01/22 13:24:13;;;;;;;12.65;5.40;;;;;;;18.74;52.45;98164.78;10425681;28;20041;-21
2022/01/22 13:29:19;;;;;;;13.70;3.90;;;;;;;18.84;52.74;98171.78;10427050;28;20037;-21
2022/01/22 13:34:30;;;;;;;15.40;3.13;;;;;;;19.45;52.20;98164.59;10428641;28;20041;-21
2022/01/22 13:45:21;;;;;;;21.73;4.32;;;;;;;19.65;49.01;98178.50;10410289;28;20517;-21
2022/01/22 13:50:22;;;;;;;12.90;4.30;;;;;;;18.92;47.65;98175.34;10420356;28;20453;-21
2022/01/22 13:55:22;;;;;;;12.63;3.42;;;;;;;18.86;51.59;98187.88;10441526;28;20068;-22
2022/01/22 14:00:25;;;;;;;24.73;5.17;;;;;;;18.80;51.98;98180.13;10400184;28;20133;-21
2022/01/22 14:05:26;;;;;;;14.00;3.33;;;;;;;18.78;51.83;98171.63;10381114;28;20297;-22
2022/01/22 14:10:27;;;;;;;13.93;4.10;;;;;;;18.81;50.81;98174.22;10407477;28;20408;-22
2022/01/22 14:15:31;;;;;;;10.65;4.10;;;;;;;18.79;51.90;98165.72;10428730;28;20045;-21
2022/01/22 14:20:33;;;;;;;15.50;4.18;;;;;;;18.84;51.89;98166.69;10444543;28;20036;-21
2022/01/22 14:25:37;;;;;;;14.15;3.58;;;;;;;19.09;50.67;98164.69;10420820;28;20033;-22
2022/01/22 14:30:41;;;;;;;14.02;4.10;;;;;;;18.99;52.38;98151.81;10431859;28;20049;-23
2022/01/22 14:35:45;;;;;;;12.82;4.78;;;;;;;18.79;49.33;98179.28;10410909;28;20041;-21
2022/01/22 14:46:04;;;;;;;10.52;3.50;;;;;;;19.19;50.24;98178.47;10408206;28;20041;-21
2022/01/22 14:51:04;;;;;;;11.35;4.85;;;;;;;19.20;50.73;98178.50;10402816;28;20033;-21
2022/01/22 14:56:05;;;;;;;7.60;3.63;;;;;;;19.18;50.99;98174.19;10421582;28;20048;-21
2022/01/22 15:01:09;;;;;;;11.50;4.13;;;;;;;19.09;50.79;98174.00;10403013;28;20575;-22
2022/01/22 15:06:09;;;;;;;12.25;4.25;;;;;;;19.04;49.21;98170.50;10394207;28;20108;-22
2022/01/22 15:11:09;;;;;;;11.30;3.97;;;;;;;19.10;49.59;98163.84;10406607;28;20048;-21
2022/01/22 15:16:11;;;;;;;10.40;4.67;;;;;;;19.10;51.15;98155.41;10401820;28;20038;-22
2022/01/22 15:21:12;;;;;;;16.63;4.35;;;;;;;19.26;51.63;98163.38;10404592;28;20041;-21
2022/01/22 15:26:14;;;;;;;8.48;3.40;;;;;;;18.77;46.73;98158.06;10396443;28;20116;-21
2022/01/22 15:31:39;;;;;;;12.10;3.35;;;;;;;18.86;47.81;98132.91;10403978;28;20480;-22
2022/01/22 15:36:37;;;;;;;12.25;3.63;;;;;;;19.11;48.87;98157.13;10411480;28;20057;-21
2022/01/22 15:41:39;;;;;;;16.00;4.35;;;;;;;18.78;43.56;98156.41;10411912;28;20029;-20
2022/01/22 15:46:42;;;;;;;6.68;3.80;;;;;;;18.33;43.73;98160.47;10407266;28;20041;-22
2022/01/22 15:51:45;;;;;;;11.10;3.10;;;;;;;18.60;45.71;98135.72;10410584;28;20124;-22
2022/01/22 15:56:47;;;;;;;12.65;3.78;;;;;;;18.82;48.78;98136.19;10416110;28;20113;-23
2022/01/22 16:01:49;;;;;;;8.35;3.28;;;;;;;18.93;48.39;98169.44;10407861;28;20114;-22
2022/01/22 16:11:52;;;;;;;13.48;3.95;;;;;;;19.12;47.71;98194.38;10405553;28;20064;-22
2022/01/22 16:16:53;;;;;;;9.65;3.20;;;;;;;19.19;48.35;98196.25;10412768;28;20065;-22
2022/01/22 16:21:55;;;;;;;12.73;3.08;;;;;;;19.25;48.72;98197.22;10451325;28;20372;-22
2022/01/22 16:26:55;;;;;;;11.43;3.72;;;;;;;19.31;49.67;98209.19;10434991;28;20040;-22
2022/01/22 16:31:55;;;;;;;9.20;3.03;;;;;;;19.36;49.80;98205.06;10408673;28;20415;-21
2022/01/22 16:36:56;;;;;;;14.32;2.92;;;;;;;19.34;49.16;98214.34;10413326;28;20494;-24
2022/01/22 16:42:04;;;;;;;9.93;2.85;;;;;;;19.23;49.04;98209.03;10412700;28;20036;-23
2022/01/22 16:57:32;;;;;;;14.50;3.10;;;;;;;19.32;49.87;98243.91;10404296;28;20162;-22
2022/01/22 17:02:36;;;;;;;12.05;2.78;;;;;;;19.29;50.29;98249.81;10406652;28;20021;-22
2022/01/22 17:07:53;;;;;;;14.32;4.18;;;;;;;19.29;51.92;98239.63;10404509;28;20037;-22
2022/01/22 17:18:13;;;;;;;20.40;3.15;;;;;;;19.24;50.69;98245.47;10411791;28;20029;-22
2022/01/22 17:23:13;;;;;;;11.00;2.90;;;;;;;19.28;49.38;98244.69;10452063;28;20028;-22
2022/01/22 17:28:14;;;;;;;15.07;3.83;;;;;;;19.27;48.83;98236.19;10419471;28;20500;-22
2022/01/22 17:33:20;;;;;;;16.67;2.88;;;;;;;19.22;48.80;98229.31;10410794;28;20134;-22
2022/01/22 17:38:20;;;;;;;9.85;2.40;;;;;;;19.34;49.52;98247.34;10410659;28;20110;-22
2022/01/22 17:43:21;;;;;;;14.45;3.25;;;;;;;19.40;51.59;98247.47;10441872;28;20056;-22
2022/01/22 17:48:21;;;;;;;13.90;3.42;;;;;;;19.36;50.83;98250.78;10435848;28;20044;-21
2022/01/22 17:53:22;;;;;;;10.17;3.93;;;;;;;19.36;50.60;98259.25;10409546;28;20037;-21
2022/01/22 17:58:24;;;;;;;17.33;10.38;;;;;;;19.41;52.41;98259.38;10441153;28;20766;-21
2022/01/22 18:03:27;;;;;;;27.13;14.27;;;;;;;19.44;50.98;98264.50;10446828;28;20124;-21
2022/01/22 18:08:27;;;;;;;25.08;17.60;;;;;;;19.48;50.53;98266.25;10409435;28;20036;-22
2022/01/22 18:13:30;;;;;;;26.77;20.13;;;;;;;19.48;50.34;98266.25;10430633;28;20034;-22
2022/01/22 18:18:31;;;;;;;59.60;46.78;;;;;;;19.55;52.50;98263.00;10408712;28;20572;-21
2022/01/22 18:23:31;;;;;;;50.10;42.30;;;;;;;19.55;51.64;98268.97;10445861;28;20120;-22
2022/01/22 18:28:32;;;;;;;61.92;50.22;;;;;;;19.52;50.60;98263.81;10414707;28;20041;-21
2022/01/22 18:33:34;;;;;;;50.40;41.78;;;;;;;19.51;50.46;98261.25;10412345;28;20111;-21
2022/01/22 18:38:35;;;;;;;52.80;42.83;;;;;;;19.52;50.25;98266.34;10400187;28;20036;-21
2022/01/22 18:43:38;;;;;;;56.15;46.45;;;;;;;19.34;50.18;98234.66;10405074;28;20039;-21
2022/01/22 18:48:40;;;;;;;47.50;39.55;;;;;;;19.50;49.75;98265.47;10398774;28;20029;-21
2022/01/22 18:53:40;;;;;;;52.38;42.65;;;;;;;19.53;50.35;98269.75;10399161;28;20091;-21
2022/01/22 18:58:40;;;;;;;63.93;53.60;;;;;;;19.60;52.63;98277.53;10403279;28;20080;-21
2022/01/22 19:03:41;;;;;;;46.63;40.95;;;;;;;19.57;50.47;98279.13;10409726;28;20284;-22
2022/01/22 19:08:42;;;;;;;53.10;43.17;;;;;;;19.56;50.32;98282.50;10403768;28;20037;-23
2022/01/22 19:13:42;;;;;;;35.53;29.13;;;;;;;19.50;49.46;98290.03;10447117;28;20032;-21
2022/01/22 19:18:42;;;;;;;45.33;34.90;;;;;;;19.52;49.73;98288.38;10441303;28;20040;-21
2022/01/22 19:23:49;;;;;;;40.33;34.53;;;;;;;19.52;49.80;98288.38;10407488;28;20105;-21
2022/01/22 19:28:50;;;;;;;35.10;31.05;;;;;;;19.52;49.53;98286.66;10451244;28;20508;-21
2022/01/22 19:33:52;;;;;;;42.88;35.25;;;;;;;19.56;51.49;98280.84;10454608;28;20384;-22
2022/01/22 19:38:52;;;;;;;43.58;35.78;;;;;;;19.65;52.08;98295.41;10415497;28;20559;-21
2022/01/22 19:44:01;;;;;;;37.00;31.42;;;;;;;19.61;50.85;98294.47;10451391;28;20112;-21
2022/01/22 19:49:05;;;;;;;37.80;29.45;;;;;;;19.58;51.25;98289.34;10441092;28;20030;-21
2022/01/22 19:54:05;;;;;;;36.90;31.50;;;;;;;19.56;51.62;98288.47;10415280;28;20511;-21
2022/01/22 19:59:06;;;;;;;33.87;28.83;;;;;;;19.56;50.40;98283.38;10408082;28;20063;-20
2022/01/22 20:04:06;;;;;;;40.05;30.98;;;;;;;19.55;51.74;98283.34;10409167;28;20346;-22
2022/01/22 20:09:07;;;;;;;34.22;29.25;;;;;;;19.55;51.61;98283.34;10419567;28;20048;-21
2022/01/22 20:14:08;;;;;;;40.72;30.85;;;;;;;19.62;52.89;98280.97;10415322;28;20034;-21
2022/01/22 20:19:08;;;;;;;33.93;29.73;;;;;;;19.67;53.07;98281.06;10425882;28;20033;-21
2022/01/22 20:24:10;;;;;;;26.83;19.67;;;;;;;19.01;46.29;98267.75;10454354;28;20299;-19
2022/01/22 20:29:11;;;;;;;21.30;16.88;;;;;;;19.11;46.88;98271.34;10412860;28;20151;-21
2022/01/22 20:34:11;;;;;;;34.10;24.25;;;;;;;19.30;49.60;98266.75;10416216;28;20090;-22
2022/01/22 20:39:11;;;;;;;27.88;17.45;;;;;;;18.83;47.70;98274.09;10445533;28;20112;-22
2022/01/22 20:44:12;;;;;;;25.47;18.17;;;;;;;19.09;47.52;98291.63;10397511;28;20029;-22
2022/01/22 20:49:13;;;;;;;28.08;18.45;;;;;;;19.27;48.24;98291.22;10422592;28;20028;-22
2022/01/22 20:54:15;;;;;;;28.67;18.30;;;;;;;19.37;49.15;98286.38;10408620;28;20488;-22
2022/01/22 20:59:15;;;;;;;26.27;18.13;;;;;;;19.45;49.46;98287.41;10450646;28;20041;-21
2022/01/22 21:04:18;;;;;;;23.08;16.83;;;;;;;19.48;49.16;98289.13;10452256;28;20029;-22
2022/01/22 21:09:20;;;;;;;18.77;16.73;;;;;;;19.47;48.72;98280.66;10453180;28;20491;-21
2022/01/22 21:14:22;;;;;;;24.35;17.85;;;;;;;19.50;49.74;98284.94;10399048;28;20417;-21
2022/01/22 21:19:24;;;;;;;24.55;17.65;;;;;;;19.47;49.67;98275.56;10390552;28;20451;-21
2022/01/22 21:24:24;;;;;;;25.58;17.58;;;;;;;19.48;48.56;98278.97;10406179;28;20113;-22
2022/01/22 21:29:27;;;;;;;23.90;18.40;;;;;;;19.47;48.57;98275.56;10387080;28;20046;-21
2022/01/22 21:34:31;;;;;;;27.70;19.67;;;;;;;19.45;49.70;98271.28;10378260;28;20507;-21
2022/01/22 21:39:50;;;;;;;31.90;20.98;;;;;;;19.49;51.19;98279.00;10364067;28;20045;-22
2022/01/22 21:44:53;;;;;;;26.17;17.58;;;;;;;19.49;49.44;98273.06;10402951;28;20033;-22
2022/01/22 21:49:54;;;;;;;22.73;16.63;;;;;;;19.47;48.86;98270.50;10411007;28;20187;-22
2022/01/22 21:54:56;;;;;;;28.40;18.33;;;;;;;19.46;48.81;98270.44;10390068;28;20029;-22
2022/01/22 21:59:56;;;;;;;22.05;16.77;;;;;;;19.44;48.65;98270.41;10364841;28;20412;-22
2022/01/22 22:04:57;;;;;;;27.13;18.73;;;;;;;19.47;48.68;98274.69;10373666;28;20034;-22
2022/01/22 22:09:57;;;;;;;23.30;17.27;;;;;;;19.47;48.73;98274.69;10367065;28;20083;-22
2022/01/22 22:14:58;;;;;;;24.50;17.03;;;;;;;19.38;48.77;98264.34;10392813;28;20042;-21
2022/01/22 22:19:58;;;;;;;24.20;15.50;;;;;;;19.10;49.80;98269.66;10399159;28;20045;-22
2022/01/22 22:25:00;;;;;;;26.07;18.40;;;;;;;18.92;51.29;98261.63;10408007;28;20064;-22
2022/01/22 22:30:01;;;;;;;30.25;18.35;;;;;;;18.94;51.83;98260.84;10407776;28;20797;-22
2022/01/22 22:35:01;;;;;;;26.60;17.77;;;;;;;18.86;52.17;98258.94;10423563;28;20403;-22
2022/01/22 22:40:02;;;;;;;24.85;17.13;;;;;;;18.87;51.91;98253.03;10441738;28;20034;-22
2022/01/22 22:45:04;;;;;;;27.00;16.85;;;;;;;18.80;52.13;98246.97;10406093;28;20476;-22
2022/01/22 22:50:04;;;;;;;31.00;18.08;;;;;;;18.83;52.35;98254.66;10425361;28;20033;-22
2022/01/22 22:55:05;;;;;;;28.40;17.77;;;;;;;18.81;52.47;98247.81;10443015;28;20034;-22
2022/01/22 23:00:31;;;;;;;32.42;16.95;;;;;;;18.81;52.61;98237.66;10407800;28;20060;-22
2022/01/22 23:05:31;;;;;;;26.25;16.45;;;;;;;18.83;52.66;98236.03;10434919;28;20511;-22
2022/01/22 23:10:32;;;;;;;23.65;17.50;;;;;;;18.83;52.38;98226.72;10438853;28;20044;-22
2022/01/22 23:15:35;;;;;;;27.17;16.48;;;;;;;18.80;52.51;98226.66;10408025;28;20084;-22
2022/01/22 23:25:59;;;;;;;23.10;15.20;;;;;;;18.80;52.55;98221.59;10452496;28;20109;-22
2022/01/22 23:31:03;;;;;;;22.85;15.88;;;;;;;18.82;52.66;98211.50;10453390;28;20033;-22
